createdAt,value
2019-05-14T00:00:44.028Z,38.23
2019-05-14T00:03:16.927Z,40.05
2019-05-14T00:08:22.207Z,39.25
2019-05-14T00:10:57.506Z,38.15
2019-05-14T00:13:32.352Z,39.80
2019-05-14T00:16:05.881Z,44.55
2019-05-14T00:18:38.435Z,43.70
2019-05-14T00:21:12.220Z,48.73
2019-05-14T00:23:51.498Z,45.48
2019-05-14T00:26:24.868Z,46.50
2019-05-14T00:31:36.484Z,45.40
2019-05-14T00:34:11.027Z,41.98
2019-05-14T00:36:43.452Z,43.90
2019-05-14T00:39:16.978Z,50.95
2019-05-14T00:44:22.891Z,43.92
2019-05-14T00:46:55.719Z,40.28
2019-05-14T00:49:35.413Z,37.73
2019-05-14T00:52:11.506Z,46.65
2019-05-14T00:54:43.709Z,44.70
2019-05-14T00:59:47.841Z,49.35
2019-05-14T01:05:01.861Z,40.80
2019-05-14T01:07:34.444Z,45.58
2019-05-14T01:10:08.832Z,49.85
2019-05-14T01:12:41.858Z,41.95
2019-05-14T01:15:14.424Z,37.70
2019-05-14T01:17:51.624Z,31.25
2019-05-14T01:20:25.991Z,21.70
2019-05-14T01:23:02.305Z,43.23
2019-05-14T01:25:36.658Z,38.25
2019-05-14T01:28:11.265Z,21.55
2019-05-14T01:30:45.079Z,31.87
2019-05-14T01:33:17.822Z,50.45
2019-05-14T01:38:23.947Z,30.77
2019-05-14T01:43:31.287Z,43.75
2019-05-14T01:46:04.200Z,41.85
2019-05-14T01:48:36.970Z,24.75
2019-05-14T01:53:41.657Z,50.50
2019-05-14T01:56:14.401Z,45.23
2019-05-14T02:01:21.661Z,45.25
2019-05-14T02:03:53.334Z,39.33
2019-05-14T02:06:26.195Z,46.02
2019-05-14T02:08:59.177Z,44.23
2019-05-14T02:14:05.571Z,31.35
2019-05-14T02:16:38.072Z,18.40
2019-05-14T02:21:43.624Z,28.42
2019-05-14T02:24:16.495Z,33.78
2019-05-14T02:29:25.669Z,40.43
2019-05-14T02:31:58.957Z,36.42
2019-05-14T02:34:31.805Z,37.93
2019-05-14T02:37:04.704Z,39.73
2019-05-14T02:39:50.044Z,55.63
2019-05-14T02:42:19.867Z,53.25
2019-05-14T02:44:59.314Z,44.90
2019-05-14T02:47:41.601Z,42.23
2019-05-14T02:50:14.987Z,30.68
2019-05-14T02:52:51.845Z,36.83
2019-05-14T02:55:24.383Z,31.70
2019-05-14T02:57:59.888Z,41.88
2019-05-14T03:00:35.357Z,28.70
2019-05-14T03:03:11.486Z,27.27
2019-05-14T03:05:44.030Z,31.42
2019-05-14T03:11:00.605Z,29.52
2019-05-14T03:13:39.992Z,46.55
2019-05-14T03:16:28.159Z,33.38
2019-05-14T03:18:50.686Z,41.00
2019-05-14T03:21:23.908Z,47.78
2019-05-14T03:24:00.620Z,25.23
2019-05-14T03:26:31.536Z,52.25
2019-05-14T03:29:04.636Z,29.60
2019-05-14T03:31:41.899Z,27.70
2019-05-14T03:34:13.401Z,46.90
2019-05-14T03:36:51.837Z,29.82
2019-05-14T03:39:20.815Z,25.68
2019-05-14T03:41:58.714Z,25.43
2019-05-14T03:44:33.626Z,23.80
2019-05-14T03:47:10.339Z,14.35
2019-05-14T03:49:41.667Z,24.60
2019-05-14T03:52:15.439Z,24.82
2019-05-14T03:54:50.126Z,24.15
2019-05-14T03:57:22.664Z,18.35
2019-05-14T03:59:59.450Z,19.77
2019-05-14T04:02:38.959Z,23.87
2019-05-14T04:05:11.069Z,35.25
2019-05-14T04:07:45.978Z,33.13
2019-05-14T04:10:19.518Z,20.97
2019-05-14T04:12:54.185Z,23.85
2019-05-14T04:15:29.834Z,22.98
2019-05-14T04:18:02.738Z,30.35
2019-05-14T04:20:39.261Z,14.93
2019-05-14T04:23:13.083Z,22.45
2019-05-14T04:25:49.633Z,23.92
2019-05-14T04:28:22.498Z,34.18
2019-05-14T04:30:59.384Z,33.00
2019-05-14T04:33:30.700Z,22.73
2019-05-14T04:36:04.137Z,20.05
2019-05-14T04:38:40.458Z,21.30
2019-05-14T04:41:11.778Z,30.80
2019-05-14T04:43:44.627Z,23.15
2019-05-14T04:48:51.153Z,13.03
2019-05-14T04:51:23.866Z,21.00
2019-05-14T04:53:59.803Z,48.65
2019-05-14T04:56:33.445Z,27.40
2019-05-14T04:59:06.020Z,31.97
2019-05-14T05:01:40.102Z,28.83
2019-05-14T05:04:12.593Z,30.52
2019-05-14T05:06:45.553Z,24.57
2019-05-14T05:09:20.027Z,28.90
2019-05-14T05:11:52.695Z,27.10
2019-05-14T05:14:25.254Z,26.45
2019-05-14T05:16:59.678Z,27.00
2019-05-14T05:19:33.299Z,24.20
2019-05-14T05:22:08.025Z,16.15
2019-05-14T05:24:42.244Z,24.60
2019-05-14T05:27:18.535Z,24.43
2019-05-14T05:29:52.064Z,25.45
2019-05-14T05:32:24.660Z,23.65
2019-05-14T05:34:58.751Z,27.05
2019-05-14T05:37:33.870Z,30.80
2019-05-14T05:40:09.210Z,28.35
2019-05-14T05:42:45.386Z,20.00
2019-05-14T05:45:18.573Z,20.52
2019-05-14T05:47:57.435Z,23.05
2019-05-14T05:50:28.548Z,26.82
2019-05-14T05:53:00.634Z,26.27
2019-05-14T05:58:04.786Z,11.68
2019-05-14T06:00:39.877Z,25.10
2019-05-14T06:03:13.061Z,14.93
2019-05-14T06:05:45.593Z,20.82
2019-05-14T06:08:21.135Z,14.55
2019-05-14T06:10:54.810Z,20.62
2019-05-14T06:13:28.734Z,17.92
2019-05-14T06:16:02.069Z,16.25
2019-05-14T06:18:35.203Z,17.80
2019-05-14T06:21:09.177Z,15.63
2019-05-14T06:23:42.631Z,13.18
2019-05-14T06:26:18.768Z,17.87
2019-05-14T06:28:50.383Z,16.20
2019-05-14T06:31:23.048Z,15.55
2019-05-14T06:33:58.946Z,13.75
2019-05-14T06:36:30.038Z,16.67
2019-05-14T06:39:02.623Z,16.27
2019-05-14T06:44:09.051Z,12.63
2019-05-14T06:46:41.359Z,14.50
2019-05-14T06:49:13.914Z,12.75
2019-05-14T06:51:48.857Z,14.43
2019-05-14T06:54:20.649Z,11.93
2019-05-14T06:56:55.104Z,11.88
2019-05-14T06:59:28.850Z,10.45
2019-05-14T07:02:03.062Z,11.25
2019-05-14T07:04:39.178Z,15.20
2019-05-14T07:07:10.797Z,10.90
2019-05-14T07:09:44.139Z,12.75
2019-05-14T07:12:19.059Z,18.67
2019-05-14T07:14:51.060Z,18.17
2019-05-14T07:17:24.194Z,14.68
2019-05-14T07:19:58.288Z,11.15
2019-05-14T07:22:31.469Z,14.40
2019-05-14T07:25:04.806Z,11.95
2019-05-14T07:27:39.241Z,11.97
2019-05-14T07:30:14.234Z,15.90
2019-05-14T07:32:48.241Z,16.40
2019-05-14T07:35:20.812Z,12.58
2019-05-14T07:37:58.991Z,13.10
2019-05-14T07:40:29.167Z,15.40
2019-05-14T07:43:02.256Z,22.75
2019-05-14T07:48:08.689Z,17.32
2019-05-14T07:50:40.928Z,10.15
2019-05-14T07:53:15.030Z,13.32
2019-05-14T07:58:20.521Z,16.17
2019-05-14T08:00:58.378Z,10.60
2019-05-14T08:03:30.919Z,13.68
2019-05-14T08:06:03.552Z,13.83
2019-05-14T08:08:38.259Z,12.65
2019-05-14T08:11:10.086Z,13.13
2019-05-14T08:13:43.874Z,14.10
2019-05-14T08:16:18.659Z,14.28
2019-05-14T08:18:51.032Z,13.38
2019-05-14T08:21:23.852Z,14.95
2019-05-14T08:23:59.134Z,23.40
2019-05-14T08:26:32.077Z,12.63
2019-05-14T08:29:10.665Z,11.55
2019-05-14T08:31:48.609Z,13.62
2019-05-14T08:34:22.757Z,11.40
2019-05-14T08:36:55.414Z,13.55
2019-05-14T08:39:30.679Z,12.63
2019-05-14T08:42:04.430Z,16.37
2019-05-14T08:44:47.923Z,15.63
2019-05-14T08:47:20.863Z,13.72
2019-05-14T08:52:34.572Z,20.82
2019-05-14T08:55:10.895Z,13.25
2019-05-14T08:57:42.692Z,17.67
2019-05-14T09:02:48.567Z,18.30
2019-05-14T09:05:21.364Z,20.57
2019-05-14T09:10:28.375Z,18.40
2019-05-14T09:13:02.724Z,15.95
2019-05-14T09:15:38.490Z,19.02
2019-05-14T09:18:12.049Z,22.73
2019-05-14T09:20:44.888Z,14.47
2019-05-14T09:23:22.598Z,20.02
2019-05-14T09:25:55.245Z,18.95
2019-05-14T09:28:30.952Z,19.73
2019-05-14T09:31:04.070Z,16.90
2019-05-14T09:33:39.042Z,10.03
2019-05-14T09:36:22.784Z,20.48
2019-05-14T09:38:51.457Z,10.00
2019-05-14T09:41:27.592Z,17.60
2019-05-14T09:43:59.497Z,12.20
2019-05-14T09:46:31.918Z,15.72
2019-05-14T09:49:04.872Z,11.50
2019-05-14T09:51:40.222Z,8.03
2019-05-14T09:54:15.021Z,18.07
2019-05-14T09:56:48.542Z,15.15
2019-05-14T09:59:24.714Z,18.40
2019-05-14T10:01:58.798Z,9.40
2019-05-14T10:04:31.999Z,15.48
2019-05-14T10:07:05.252Z,29.42
2019-05-14T10:09:38.884Z,18.95
2019-05-14T10:12:11.932Z,18.27
2019-05-14T10:14:49.063Z,16.93
2019-05-14T10:17:22.347Z,25.97
2019-05-14T10:19:55.183Z,12.25
2019-05-14T10:22:28.549Z,20.10
2019-05-14T10:25:02.216Z,17.45
2019-05-14T10:27:36.592Z,14.50
2019-05-14T10:30:13.851Z,24.60
2019-05-14T10:32:49.264Z,15.20
2019-05-14T10:35:23.558Z,23.70
2019-05-14T10:37:59.833Z,16.80
2019-05-14T10:40:32.990Z,26.50
2019-05-14T10:43:10.444Z,30.05
2019-05-14T10:45:44.138Z,12.75
2019-05-14T10:48:18.542Z,20.00
2019-05-14T10:51:03.146Z,26.20
2019-05-14T10:53:28.669Z,13.28
2019-05-14T10:56:03.618Z,10.58
2019-05-14T10:58:36.280Z,19.60
2019-05-14T11:01:11.225Z,21.40
2019-05-14T11:03:44.599Z,14.60
2019-05-14T11:06:18.718Z,22.35
2019-05-14T11:08:51.838Z,27.62
2019-05-14T11:11:25.140Z,16.85
2019-05-14T11:13:59.954Z,24.15
2019-05-14T11:16:32.751Z,13.45
2019-05-14T11:19:09.060Z,25.62
2019-05-14T11:21:39.937Z,19.50
2019-05-14T11:24:13.245Z,16.77
2019-05-14T11:26:48.540Z,11.73
2019-05-14T11:29:20.599Z,15.28
2019-05-14T11:31:53.323Z,12.33
2019-05-14T11:34:38.770Z,11.30
2019-05-14T11:37:12.205Z,11.43
2019-05-14T11:42:20.422Z,11.88
2019-05-14T11:44:53.933Z,7.95
2019-05-14T11:47:28.166Z,11.12
2019-05-14T11:50:01.515Z,5.62
2019-05-14T11:52:35.310Z,12.88
2019-05-14T11:55:09.759Z,13.15
2019-05-14T11:57:43.799Z,15.18
2019-05-14T12:00:20.691Z,8.65
2019-05-14T12:02:54.305Z,19.32
2019-05-14T12:05:30.451Z,13.80
2019-05-14T12:08:02.531Z,8.88
2019-05-14T12:10:35.254Z,14.63
2019-05-14T12:13:08.537Z,8.28
2019-05-14T12:15:41.754Z,9.85
2019-05-14T12:20:49.709Z,13.62
2019-05-14T12:23:20.633Z,9.63
2019-05-14T12:25:53.595Z,13.88
2019-05-14T12:28:28.933Z,8.58
2019-05-14T12:31:00.827Z,9.70
2019-05-14T12:33:33.598Z,9.58
2019-05-14T12:38:38.281Z,13.50
2019-05-14T12:41:11.148Z,11.80
2019-05-14T12:43:43.892Z,8.23
2019-05-14T12:46:19.839Z,14.53
2019-05-14T12:49:06.699Z,13.65
2019-05-14T12:51:31.406Z,15.03
2019-05-14T12:54:05.605Z,12.60
2019-05-14T12:56:39.085Z,10.90
2019-05-14T12:59:11.966Z,17.98
2019-05-14T13:01:44.963Z,8.98
2019-05-14T13:04:20.070Z,9.25
2019-05-14T13:06:54.866Z,11.33
2019-05-14T13:09:28.135Z,6.85
2019-05-14T13:12:01.160Z,10.38
2019-05-14T13:14:39.500Z,10.18
2019-05-14T13:17:11.721Z,13.93
2019-05-14T13:22:41.548Z,8.03
2019-05-14T13:25:10.585Z,10.13
2019-05-14T13:27:52.973Z,10.43
2019-05-14T13:30:43.342Z,6.05
2019-05-14T13:33:10.636Z,8.20
2019-05-14T13:35:51.084Z,8.40
2019-05-14T13:38:23.582Z,9.68
2019-05-14T13:40:59.454Z,8.98
2019-05-14T13:43:55.019Z,9.98
2019-05-14T13:46:23.817Z,13.32
2019-05-14T13:48:59.083Z,14.93
2019-05-14T13:51:33.955Z,17.50
2019-05-14T13:54:08.472Z,12.20
2019-05-14T13:56:48.359Z,8.55
2019-05-14T13:59:21.539Z,8.05
2019-05-14T14:01:55.339Z,11.75
2019-05-14T14:04:28.222Z,8.43
2019-05-14T14:07:01.391Z,9.60
2019-05-14T14:12:08.181Z,10.08
2019-05-14T14:14:41.254Z,10.55
2019-05-14T14:17:18.271Z,10.10
2019-05-14T14:19:50.172Z,14.43
2019-05-14T14:22:22.914Z,10.65
2019-05-14T14:24:59.085Z,14.10
2019-05-14T14:27:30.319Z,15.58
2019-05-14T14:30:03.446Z,15.53
2019-05-14T14:32:36.671Z,14.03
2019-05-14T14:35:09.822Z,13.78
2019-05-14T14:37:45.052Z,21.27
2019-05-14T14:40:21.390Z,24.77
2019-05-14T14:42:52.242Z,23.98
2019-05-14T14:45:29.007Z,25.80
2019-05-14T14:48:01.284Z,24.95
2019-05-14T14:50:34.425Z,21.02
2019-05-14T14:53:09.291Z,21.70
2019-05-14T14:55:45.357Z,21.68
2019-05-14T14:58:20.008Z,18.05
2019-05-14T15:00:53.306Z,12.98
2019-05-14T15:03:29.615Z,13.25
2019-05-14T15:06:03.773Z,12.20
2019-05-14T15:11:39.400Z,12.73
2019-05-14T15:14:10.895Z,13.30
2019-05-14T15:16:45.112Z,18.80
2019-05-14T15:19:19.320Z,18.25
2019-05-14T15:21:52.808Z,10.28
2019-05-14T15:24:25.553Z,9.18
2019-05-14T15:27:15.145Z,12.43
2019-05-14T15:29:48.706Z,10.58
2019-05-14T15:32:20.813Z,15.98
2019-05-14T15:34:52.981Z,10.05
2019-05-14T15:37:31.239Z,12.50
2019-05-14T15:40:03.929Z,15.30
2019-05-14T15:42:35.374Z,12.45
2019-05-14T15:45:09.295Z,16.17
2019-05-14T15:47:42.665Z,10.80
2019-05-14T15:50:20.057Z,15.70
2019-05-14T15:52:53.008Z,17.75
2019-05-14T15:55:28.911Z,11.70
2019-05-14T15:58:03.905Z,11.45
2019-05-14T16:00:38.569Z,13.10
2019-05-14T16:03:11.158Z,8.55
2019-05-14T16:05:44.932Z,12.25
2019-05-14T16:08:22.581Z,12.68
2019-05-14T16:10:53.539Z,12.00
2019-05-14T16:13:28.542Z,10.35
2019-05-14T16:16:01.151Z,12.98
2019-05-14T16:18:34.412Z,16.00
2019-05-14T16:23:42.482Z,16.85
2019-05-14T16:26:18.791Z,15.50
2019-05-14T16:28:52.081Z,13.43
2019-05-14T16:34:09.744Z,15.50
2019-05-14T16:36:42.685Z,18.27
2019-05-14T16:39:16.072Z,17.52
2019-05-14T16:41:49.122Z,17.70
2019-05-14T16:44:21.860Z,13.22
2019-05-14T16:46:54.271Z,23.27
2019-05-14T16:49:29.393Z,21.30
2019-05-14T16:52:02.341Z,29.00
2019-05-14T16:54:35.406Z,67.55
2019-05-14T16:57:10.939Z,130.10
2019-05-14T16:59:42.266Z,120.35
2019-05-14T17:02:18.905Z,106.25
2019-05-14T17:04:50.809Z,115.03
2019-05-14T17:07:23.842Z,70.08
2019-05-14T17:09:58.133Z,120.65
2019-05-14T17:12:46.955Z,157.27
2019-05-14T17:15:04.727Z,112.75
2019-05-14T17:17:37.830Z,136.18
2019-05-14T17:20:11.258Z,143.17
2019-05-14T17:22:43.714Z,208.87
2019-05-14T17:25:26.669Z,145.57
2019-05-14T17:27:50.950Z,151.30
2019-05-14T17:32:58.974Z,151.22
2019-05-14T17:35:33.660Z,136.10
2019-05-14T17:38:09.077Z,178.65
2019-05-14T17:40:45.372Z,136.28
2019-05-14T17:43:23.258Z,163.28
2019-05-14T17:45:55.274Z,188.55
2019-05-14T17:48:28.466Z,120.08
2019-05-14T17:51:01.563Z,159.30
2019-05-14T17:53:34.134Z,106.25
2019-05-14T17:56:08.351Z,81.87
2019-05-14T17:58:40.699Z,90.72
2019-05-14T18:01:13.429Z,58.40
2019-05-14T18:03:48.842Z,88.52
2019-05-14T18:06:20.098Z,71.77
2019-05-14T18:08:52.738Z,61.50
2019-05-14T18:11:25.060Z,50.45
2019-05-14T18:13:58.960Z,54.00
2019-05-14T18:16:31.875Z,48.15
2019-05-14T18:19:04.519Z,50.28
2019-05-14T18:21:38.927Z,60.17
2019-05-14T18:24:13.326Z,55.43
2019-05-14T18:26:47.932Z,61.50
2019-05-14T18:29:21.510Z,91.50
2019-05-14T18:31:54.990Z,55.17
2019-05-14T18:34:28.454Z,65.75
2019-05-14T18:37:01.494Z,82.82
2019-05-14T18:39:34.410Z,64.87
2019-05-14T18:42:08.590Z,78.83
2019-05-14T18:45:34.106Z,74.82
2019-05-14T18:48:08.507Z,61.77
2019-05-14T18:50:41.187Z,55.90
2019-05-14T18:55:59.672Z,63.17
2019-05-14T18:58:32.767Z,63.68
2019-05-14T19:01:05.637Z,64.97
2019-05-14T19:03:39.619Z,70.92
2019-05-14T19:06:12.792Z,60.23
2019-05-14T19:11:18.387Z,77.50
2019-05-14T19:13:51.340Z,78.85
2019-05-14T19:16:28.668Z,64.00
2019-05-14T19:19:00.803Z,64.25
2019-05-14T19:21:33.354Z,67.87
2019-05-14T19:24:06.054Z,66.72
2019-05-14T19:26:40.383Z,69.30
2019-05-14T19:29:12.579Z,40.20
2019-05-14T19:31:47.969Z,61.40
2019-05-14T19:34:20.256Z,57.43
2019-05-14T19:36:52.743Z,55.83
2019-05-14T19:39:28.172Z,61.35
2019-05-14T19:42:00.757Z,60.35
2019-05-14T19:44:33.947Z,52.10
2019-05-14T19:49:38.258Z,52.58
2019-05-14T19:54:42.721Z,59.63
2019-05-14T19:57:15.131Z,30.32
2019-05-14T19:59:49.091Z,54.08
2019-05-14T20:02:22.221Z,54.63
2019-05-14T20:04:54.608Z,35.10
2019-05-14T20:07:27.979Z,48.87
2019-05-14T20:10:00.426Z,54.93
2019-05-14T20:12:33.652Z,45.38
2019-05-14T20:15:09.435Z,26.00
2019-05-14T20:17:42.005Z,49.98
2019-05-14T20:20:15.242Z,42.38
2019-05-14T20:23:01.246Z,44.30
2019-05-14T20:25:34.448Z,53.68
2019-05-14T20:30:40.017Z,55.48
2019-05-14T20:33:12.411Z,51.73
2019-05-14T20:35:45.434Z,51.45
2019-05-14T20:38:18.421Z,31.90
2019-05-14T20:40:51.767Z,32.33
2019-05-14T20:43:24.198Z,37.75
2019-05-14T20:45:59.464Z,50.45
2019-05-14T20:48:33.058Z,38.88
2019-05-14T20:51:08.834Z,36.38
2019-05-14T20:53:41.155Z,58.75
2019-05-14T20:56:13.960Z,43.60
2019-05-14T20:58:48.164Z,57.78
2019-05-14T21:01:21.316Z,71.42
2019-05-14T21:03:55.142Z,65.03
2019-05-14T21:06:28.254Z,60.17
2019-05-14T21:11:32.598Z,58.65
2019-05-14T21:14:05.977Z,52.83
2019-05-14T21:16:39.158Z,63.73
2019-05-14T21:19:12.373Z,65.92
2019-05-14T21:24:18.149Z,63.95
2019-05-14T21:26:51.963Z,64.07
2019-05-14T21:29:24.399Z,72.95
2019-05-14T21:32:01.329Z,74.70
2019-05-14T21:34:31.816Z,44.03
2019-05-14T21:37:04.377Z,67.78
2019-05-14T21:39:38.348Z,46.92
2019-05-14T21:42:13.388Z,71.42
2019-05-14T21:44:48.318Z,70.52
2019-05-14T21:47:20.336Z,69.55
2019-05-14T21:52:25.080Z,74.65
2019-05-14T21:54:58.616Z,67.32
2019-05-14T21:57:30.944Z,77.22
2019-05-14T22:00:03.689Z,81.63
2019-05-14T22:02:38.313Z,67.37
2019-05-14T22:05:11.232Z,79.15
2019-05-14T22:07:43.800Z,70.20
2019-05-14T22:10:18.985Z,77.50
2019-05-14T22:12:51.902Z,74.65
2019-05-14T22:15:24.789Z,75.65
2019-05-14T22:17:58.696Z,73.60
2019-05-14T22:20:31.743Z,75.05
2019-05-14T22:23:04.049Z,73.78
2019-05-14T22:25:39.108Z,69.85
2019-05-14T22:28:15.374Z,79.10
2019-05-14T22:30:45.455Z,77.30
2019-05-14T22:33:19.105Z,71.87
2019-05-14T22:35:52.054Z,82.88
2019-05-14T22:38:24.706Z,74.92
2019-05-14T22:40:59.257Z,76.10
2019-05-14T22:43:33.434Z,71.50
2019-05-14T22:48:38.591Z,73.87
2019-05-14T22:51:11.228Z,66.85
2019-05-14T22:53:44.288Z,72.00
2019-05-14T22:56:17.354Z,82.55
2019-05-14T22:58:50.219Z,74.40
2019-05-14T23:01:22.987Z,84.85
2019-05-14T23:04:00.347Z,78.78
2019-05-14T23:06:33.150Z,76.75
2019-05-14T23:11:38.479Z,75.60
2019-05-14T23:14:15.617Z,73.00
2019-05-14T23:16:49.165Z,78.85
2019-05-14T23:19:22.737Z,78.22
2019-05-14T23:21:58.023Z,68.95
2019-05-14T23:24:30.520Z,64.62
2019-05-14T23:27:03.346Z,70.35
2019-05-14T23:29:38.350Z,67.95
2019-05-14T23:32:10.104Z,67.45
2019-05-14T23:37:14.219Z,70.85
2019-05-14T23:39:48.945Z,61.42
2019-05-14T23:42:21.614Z,63.00
2019-05-14T23:44:54.470Z,67.75
2019-05-14T23:47:28.953Z,50.65
2019-05-14T23:50:01.550Z,52.55
2019-05-14T23:52:34.073Z,49.48
2019-05-14T23:55:08.595Z,54.77
2019-05-14T23:57:41.699Z,49.58
